Time;durP1;ratioP1;P1;durP2;ratioP2;P2;SDS_P1;SDS_P2;PMS_P1;PMS_P2;Temp;Humidity;BMP_temperature;BMP_pressure;BME280_temperature;BME280_humidity;BME280_pressure;Samples;Min_cycle;Max_cycle;Signal;HPM_P1;HPM_P2
2021/04/23 00:00:59;;;;;;;15.02;1.95;;;31.40;20.50;;;;;;5034809;28;20434;-66
2021/04/23 00:03:51;;;;;;;8.68;2.03;;;31.40;20.70;;;;;;5032936;28;20077;-65
2021/04/23 00:06:34;;;;;;;25.27;2.92;;;31.50;20.70;;;;;;5034460;28;20196;-65
2021/04/23 00:09:06;;;;;;;15.05;2.88;;;31.30;20.90;;;;;;5033309;28;20550;-65
2021/04/23 00:11:36;;;;;;;18.40;3.17;;;31.00;21.20;;;;;;5030726;28;20161;-65
2021/04/23 00:14:04;;;;;;;9.68;2.47;;;30.80;21.10;;;;;;5034393;28;20114;-64
2021/04/23 00:16:31;;;;;;;10.23;2.67;;;30.50;21.30;;;;;;5031226;28;20422;-65
2021/04/23 00:18:58;;;;;;;8.82;2.60;;;30.10;21.80;;;;;;5035092;28;20124;-65
2021/04/23 00:21:27;;;;;;;14.85;2.55;;;30.20;21.90;;;;;;5039286;28;20593;-64
2021/04/23 00:23:53;;;;;;;14.00;2.80;;;30.10;22.10;;;;;;5034454;28;20136;-66
2021/04/23 00:26:20;;;;;;;12.85;2.78;;;30.10;22.20;;;;;;5034166;28;20128;-66
2021/04/23 00:28:47;;;;;;;14.13;2.40;;;29.90;22.20;;;;;;5034073;28;20077;-66
2021/04/23 00:31:14;;;;;;;13.68;2.50;;;29.70;22.40;;;;;;5033834;28;20066;-65
2021/04/23 00:33:41;;;;;;;14.50;2.40;;;29.60;22.70;;;;;;5033204;28;20144;-64
2021/04/23 00:36:09;;;;;;;23.92;2.70;;;29.40;22.50;;;;;;5032942;28;20066;-65
2021/04/23 00:38:37;;;;;;;15.10;2.25;;;29.30;23.00;;;;;;5033014;28;20070;-65
2021/04/23 00:41:13;;;;;;;15.35;3.78;;;29.10;23.10;;;;;;5033346;28;20143;-65
2021/04/23 00:43:46;;;;;;;11.95;2.40;;;29.20;23.30;;;;;;5033321;28;20144;-65
2021/04/23 00:46:14;;;;;;;17.23;2.63;;;29.10;23.20;;;;;;5058192;28;20534;-63
2021/04/23 00:48:46;;;;;;;15.25;2.53;;;29.00;23.00;;;;;;5033736;28;20093;-65
2021/04/23 00:51:20;;;;;;;11.82;3.08;;;28.70;23.30;;;;;;5031633;28;20484;-64
2021/04/23 00:53:53;;;;;;;11.95;2.75;;;28.60;23.40;;;;;;5032043;28;20520;-64
2021/04/23 00:56:23;;;;;;;17.80;3.35;;;28.50;23.40;;;;;;5047315;28;20208;-64
2021/04/23 00:58:52;;;;;;;10.35;2.67;;;28.70;23.50;;;;;;5033576;28;20084;-64
2021/04/23 01:01:26;;;;;;;17.90;3.20;;;28.50;23.40;;;;;;5031157;28;20498;-66
2021/04/23 01:03:54;;;;;;;15.60;2.75;;;28.40;23.80;;;;;;5032850;28;20077;-65
2021/04/23 01:06:24;;;;;;;15.07;2.92;;;28.20;23.90;;;;;;5033450;28;20149;-64
2021/04/23 01:08:53;;;;;;;14.52;2.90;;;28.20;23.90;;;;;;5033138;28;20081;-66
2021/04/23 01:11:22;;;;;;;18.88;2.53;;;28.00;24.30;;;;;;5033133;28;20523;-64
2021/04/23 01:13:49;;;;;;;10.15;2.50;;;27.90;24.60;;;;;;5030472;28;20181;-65
2021/04/23 01:16:18;;;;;;;21.92;2.70;;;27.80;24.70;;;;;;5032795;28;20070;-63
2021/04/23 01:18:45;;;;;;;18.02;3.15;;;27.70;25.40;;;;;;5033591;28;20073;-65
2021/04/23 01:21:14;;;;;;;20.05;2.60;;;27.50;25.50;;;;;;5031554;28;20073;-66
2021/04/23 01:23:42;;;;;;;14.18;2.67;;;27.40;25.80;;;;;;5032377;28;20074;-63
2021/04/23 01:26:12;;;;;;;11.43;2.50;;;27.30;25.90;;;;;;5034331;28;20410;-66
2021/04/23 01:28:39;;;;;;;14.30;2.85;;;27.10;26.20;;;;;;5050827;28;20081;-63
2021/04/23 01:31:08;;;;;;;21.23;3.05;;;26.80;26.60;;;;;;5036364;28;20524;-62
2021/04/23 01:33:37;;;;;;;21.20;2.78;;;26.80;26.80;;;;;;5035896;28;20086;-63
2021/04/23 01:36:05;;;;;;;26.13;3.45;;;26.70;27.00;;;;;;5036880;28;20161;-64
2021/04/23 01:38:34;;;;;;;18.63;3.00;;;26.40;27.30;;;;;;5036492;28;20070;-61
2021/04/23 01:41:02;;;;;;;14.13;2.80;;;26.30;27.40;;;;;;5033291;28;20169;-63
2021/04/23 01:43:29;;;;;;;20.25;2.83;;;26.00;27.50;;;;;;5033021;28;20113;-63
2021/04/23 01:45:57;;;;;;;37.60;3.40;;;25.90;27.70;;;;;;5030962;28;20188;-65
2021/04/23 01:48:25;;;;;;;31.70;3.88;;;25.70;27.80;;;;;;5034273;28;20086;-63
2021/04/23 01:50:52;;;;;;;25.83;4.50;;;25.60;27.80;;;;;;5029289;28;20074;-65
2021/04/23 01:53:19;;;;;;;26.02;4.05;;;25.50;28.00;;;;;;5032318;28;20132;-64
2021/04/23 01:55:46;;;;;;;28.13;3.58;;;25.40;27.90;;;;;;5030966;28;20074;-64
2021/04/23 01:58:13;;;;;;;18.85;3.00;;;25.10;27.70;;;;;;5030708;28;20446;-64
2021/04/23 02:00:46;;;;;;;24.10;3.28;;;25.00;27.80;;;;;;5031484;28;20154;-62
2021/04/23 02:03:13;;;;;;;16.70;3.63;;;24.80;28.10;;;;;;5031866;28;20089;-63
2021/04/23 02:05:42;;;;;;;20.02;3.35;;;24.80;28.00;;;;;;5032551;28;20074;-64
2021/04/23 02:08:10;;;;;;;28.88;3.95;;;24.70;28.30;;;;;;5031071;28;20078;-65
2021/04/23 02:10:43;;;;;;;18.05;3.60;;;24.70;28.30;;;;;;5031819;28;20536;-62
2021/04/23 02:13:11;;;;;;;30.85;3.60;;;24.60;28.30;;;;;;5031571;28;20082;-63
2021/04/23 02:15:38;;;;;;;21.00;3.05;;;24.50;28.40;;;;;;5032118;28;20085;-63
2021/04/23 02:18:05;;;;;;;20.98;3.08;;;24.50;28.40;;;;;;5032975;28;20097;-63
2021/04/23 02:20:35;;;;;;;16.80;2.92;;;24.40;28.50;;;;;;5030518;28;20074;-64
2021/04/23 02:23:05;;;;;;;18.73;2.85;;;24.30;28.60;;;;;;5030576;28;21278;-64
2021/04/23 02:25:33;;;;;;;14.07;2.95;;;24.20;28.40;;;;;;5030832;28;20074;-64
2021/04/23 02:28:01;;;;;;;19.42;3.22;;;24.10;28.40;;;;;;5027807;28;20538;-63
2021/04/23 02:30:32;;;;;;;15.68;3.20;;;24.00;28.30;;;;;;5030843;28;20588;-64
2021/04/23 02:33:02;;;;;;;12.13;2.80;;;24.00;28.50;;;;;;5030746;28;20066;-65
2021/04/23 02:35:29;;;;;;;15.60;2.70;;;24.00;28.40;;;;;;5032447;28;20085;-65
2021/04/23 02:37:56;;;;;;;26.95;3.03;;;23.90;28.20;;;;;;5030443;28;20074;-65
2021/04/23 02:40:27;;;;;;;9.15;2.28;;;23.90;28.10;;;;;;5048004;28;20081;-65
2021/04/23 02:42:56;;;;;;;12.43;2.63;;;23.90;28.10;;;;;;5030896;28;20108;-64
2021/04/23 02:45:26;;;;;;;23.38;2.47;;;23.80;28.30;;;;;;5031366;28;20084;-65
2021/04/23 02:47:54;;;;;;;13.20;2.15;;;23.70;28.30;;;;;;5031219;28;20238;-65
2021/04/23 02:50:25;;;;;;;16.25;2.30;;;23.70;28.60;;;;;;5029771;28;20066;-63
2021/04/23 02:52:52;;;;;;;17.13;2.80;;;23.60;28.70;;;;;;5030238;28;20136;-64
2021/04/23 02:55:19;;;;;;;13.48;3.00;;;23.50;28.90;;;;;;5032073;28;20109;-63
2021/04/23 02:58:06;;;;;;;12.85;3.13;;;23.50;29.20;;;;;;5030453;28;20479;-64
2021/04/23 03:00:36;;;;;;;19.33;2.58;;;23.50;29.30;;;;;;5047330;28;20081;-64
2021/04/23 03:03:05;;;;;;;10.63;2.35;;;23.20;29.80;;;;;;5034931;28;20438;-63
2021/04/23 03:05:33;;;;;;;11.85;2.67;;;23.20;30.00;;;;;;5036760;28;20070;-65
2021/04/23 03:08:00;;;;;;;11.77;3.08;;;23.10;30.00;;;;;;5034598;28;20545;-65
2021/04/23 03:10:33;;;;;;;22.63;3.17;;;23.10;30.20;;;;;;5034174;28;20085;-64
2021/04/23 03:13:06;;;;;;;13.15;2.70;;;23.00;30.00;;;;;;5035658;28;20518;-65
2021/04/23 03:15:33;;;;;;;11.13;2.60;;;23.00;30.10;;;;;;5034219;28;20077;-66
2021/04/23 03:18:02;;;;;;;27.73;4.07;;;23.00;30.00;;;;;;5034546;28;20070;-65
2021/04/23 03:20:29;;;;;;;20.50;2.92;;;23.00;30.00;;;;;;5033689;28;20612;-64
2021/04/23 03:22:56;;;;;;;10.95;2.50;;;22.90;29.90;;;;;;5034109;28;20078;-65
2021/04/23 03:25:26;;;;;;;13.15;2.20;;;22.90;30.00;;;;;;5034909;28;20080;-63
2021/04/23 03:27:53;;;;;;;8.93;2.50;;;22.80;29.80;;;;;;5037836;28;20078;-63
2021/04/23 03:30:23;;;;;;;9.68;2.25;;;22.80;29.70;;;;;;5035843;28;20085;-64
2021/04/23 03:32:50;;;;;;;13.68;2.83;;;22.80;29.80;;;;;;5035334;28;20085;-63
2021/04/23 03:35:17;;;;;;;14.10;2.80;;;22.60;29.90;;;;;;5033592;28;20177;-66
2021/04/23 03:37:45;;;;;;;14.55;3.00;;;22.70;30.00;;;;;;5035841;28;20081;-64
2021/04/23 03:40:14;;;;;;;20.40;3.90;;;22.80;30.00;;;;;;5033041;28;20074;-63
2021/04/23 03:42:41;;;;;;;11.25;3.30;;;22.70;29.90;;;;;;5033811;28;20110;-64
2021/04/23 03:45:10;;;;;;;18.88;2.55;;;22.60;29.90;;;;;;5034530;28;20074;-63
2021/04/23 03:47:37;;;;;;;13.38;2.60;;;22.60;30.00;;;;;;5034910;28;20074;-63
2021/04/23 03:50:07;;;;;;;12.05;2.60;;;22.60;30.00;;;;;;5033995;28;20070;-62
2021/04/23 03:52:35;;;;;;;10.57;2.60;;;22.70;30.00;;;;;;5031468;28;20077;-63
2021/04/23 03:55:08;;;;;;;18.65;3.38;;;22.70;29.60;;;;;;5034444;28;20575;-64
2021/04/23 03:57:35;;;;;;;15.68;3.05;;;22.70;29.70;;;;;;5035172;28;20089;-62
2021/04/23 04:00:09;;;;;;;17.40;3.33;;;22.60;29.60;;;;;;5032925;28;20074;-63
2021/04/23 04:02:35;;;;;;;13.10;3.35;;;22.60;29.70;;;;;;5033745;28;20582;-63
2021/04/23 04:05:02;;;;;;;15.25;3.50;;;22.50;29.60;;;;;;5032253;28;20439;-64
2021/04/23 04:07:29;;;;;;;17.60;3.97;;;22.50;29.50;;;;;;5035319;28;20220;-62
2021/04/23 04:09:55;;;;;;;15.40;4.18;;;22.50;29.40;;;;;;5033334;28;20152;-66
2021/04/23 04:12:22;;;;;;;14.75;3.42;;;22.50;29.40;;;;;;5032722;28;20066;-64
2021/04/23 04:14:48;;;;;;;22.67;5.00;;;22.50;29.40;;;;;;5032854;28;20244;-64
2021/04/23 04:17:15;;;;;;;181.05;45.20;;;22.60;29.50;;;;;;5034863;28;20085;-64
2021/04/23 04:19:43;;;;;;;83.25;23.60;;;22.50;29.30;;;;;;5033093;28;20101;-63
2021/04/23 04:22:10;;;;;;;55.58;15.35;;;22.40;29.40;;;;;;5032801;28;20070;-64
2021/04/23 04:24:36;;;;;;;55.17;16.63;;;22.40;29.40;;;;;;5033627;28;20074;-63
2021/04/23 04:27:03;;;;;;;18.02;3.47;;;22.40;29.40;;;;;;5034580;28;20485;-62
2021/04/23 04:29:31;;;;;;;16.17;3.63;;;22.30;29.60;;;;;;5034364;28;20189;-62
2021/04/23 04:31:57;;;;;;;20.92;4.72;;;22.30;29.70;;;;;;5035187;28;20088;-63
2021/04/23 04:34:24;;;;;;;16.13;3.80;;;22.30;29.60;;;;;;5033684;28;20098;-62
2021/04/23 04:36:50;;;;;;;16.77;3.08;;;22.30;29.60;;;;;;5034326;28;20070;-62
2021/04/23 04:39:17;;;;;;;14.77;3.40;;;22.30;29.60;;;;;;5033669;28;20078;-62
2021/04/23 04:41:43;;;;;;;10.77;3.25;;;22.30;29.60;;;;;;5031728;28;20488;-63
2021/04/23 04:44:10;;;;;;;15.48;3.60;;;22.30;29.60;;;;;;5034346;28;20885;-63
2021/04/23 04:46:36;;;;;;;15.65;4.13;;;22.30;29.60;;;;;;5032525;28;20438;-63
2021/04/23 04:49:03;;;;;;;16.73;4.47;;;22.30;29.60;;;;;;5033383;28;20078;-62
2021/04/23 04:51:30;;;;;;;19.90;5.00;;;22.20;29.70;;;;;;5032827;28;20543;-63
2021/04/23 04:53:56;;;;;;;10.88;2.55;;;22.20;29.50;;;;;;5032236;28;20129;-63
2021/04/23 04:56:23;;;;;;;11.85;2.92;;;22.20;29.80;;;;;;5033436;28;20490;-62
2021/04/23 04:58:50;;;;;;;33.13;6.45;;;22.20;29.70;;;;;;5036008;28;20529;-64
2021/04/23 05:01:16;;;;;;;36.88;11.15;;;22.20;29.80;;;;;;5033553;28;20097;-63
2021/04/23 05:03:44;;;;;;;67.63;19.00;;;22.20;29.70;;;;;;5033266;28;20070;-61
2021/04/23 05:06:11;;;;;;;55.95;13.57;;;22.10;29.90;;;;;;5031714;28;20754;-65
2021/04/23 05:08:38;;;;;;;38.85;7.30;;;22.10;30.00;;;;;;5034084;28;20119;-61
2021/04/23 05:11:05;;;;;;;69.75;13.70;;;22.10;30.20;;;;;;5034374;28;20070;-62
2021/04/23 05:13:31;;;;;;;78.18;15.52;;;22.00;30.00;;;;;;5032115;28;20572;-63
2021/04/23 05:15:58;;;;;;;71.43;13.20;;;22.00;30.20;;;;;;5034603;28;20086;-64
2021/04/23 05:18:25;;;;;;;42.65;11.60;;;21.90;30.20;;;;;;5032064;28;20586;-63
2021/04/23 05:20:52;;;;;;;25.15;6.40;;;21.80;30.30;;;;;;5034263;28;20085;-63
2021/04/23 05:23:18;;;;;;;28.48;4.95;;;21.70;30.70;;;;;;5034454;28;20078;-60
2021/04/23 05:25:45;;;;;;;16.55;3.67;;;21.70;30.70;;;;;;5035391;28;20100;-62
2021/04/23 05:28:11;;;;;;;15.85;3.33;;;21.70;30.80;;;;;;5032110;28;20094;-62
2021/04/23 05:30:39;;;;;;;14.13;3.55;;;21.70;30.90;;;;;;5033359;28;20077;-63
2021/04/23 05:33:09;;;;;;;17.00;3.33;;;21.70;31.30;;;;;;5031487;28;20084;-63
2021/04/23 05:35:38;;;;;;;17.27;3.47;;;21.70;31.50;;;;;;5034156;28;20096;-62
2021/04/23 05:38:05;;;;;;;17.75;3.63;;;21.70;31.80;;;;;;5031361;28;20070;-63
2021/04/23 05:40:43;;;;;;;15.70;3.80;;;21.60;31.70;;;;;;5032546;28;20522;-64
2021/04/23 05:43:11;;;;;;;18.35;3.35;;;21.60;31.40;;;;;;5030102;28;20108;-65
2021/04/23 05:45:40;;;;;;;17.63;3.38;;;21.50;31.30;;;;;;5037033;28;20415;-64
2021/04/23 05:48:10;;;;;;;9.77;2.58;;;21.50;31.60;;;;;;5038241;28;20530;-65
2021/04/23 05:50:37;;;;;;;20.45;3.58;;;21.50;31.30;;;;;;5030907;28;20112;-63
2021/04/23 05:53:07;;;;;;;12.20;3.35;;;21.50;31.60;;;;;;5031708;28;20094;-64
2021/04/23 05:55:36;;;;;;;19.00;3.75;;;21.40;31.60;;;;;;5033118;28;20117;-61
2021/04/23 05:58:05;;;;;;;14.90;3.90;;;21.40;32.20;;;;;;5029425;28;20080;-63
2021/04/23 06:00:34;;;;;;;16.05;3.88;;;21.30;31.80;;;;;;5030527;28;20140;-64
2021/04/23 06:03:02;;;;;;;16.25;3.72;;;21.30;32.00;;;;;;5030942;28;20501;-64
2021/04/23 06:05:29;;;;;;;16.77;2.70;;;21.20;32.30;;;;;;5031115;28;20075;-64
2021/04/23 06:08:02;;;;;;;16.45;2.72;;;21.10;32.70;;;;;;5031669;28;20080;-63
2021/04/23 06:10:32;;;;;;;16.55;2.85;;;21.00;33.20;;;;;;5031419;28;20082;-63
2021/04/23 06:12:59;;;;;;;10.35;2.80;;;21.00;33.70;;;;;;5030761;28;20136;-62
2021/04/23 06:15:27;;;;;;;19.95;2.72;;;20.90;33.90;;;;;;5031593;28;20078;-64
2021/04/23 06:17:55;;;;;;;11.40;2.38;;;20.90;34.30;;;;;;5032319;28;20148;-63
2021/04/23 06:20:25;;;;;;;16.23;2.20;;;20.70;34.50;;;;;;5031698;28;20077;-64
2021/04/23 06:22:52;;;;;;;16.70;2.40;;;20.70;35.60;;;;;;5032266;28;20074;-63
2021/04/23 06:25:19;;;;;;;10.80;2.50;;;20.50;35.10;;;;;;5031274;28;20078;-62
2021/04/23 06:27:47;;;;;;;14.68;2.85;;;20.50;35.40;;;;;;5029057;28;20136;-62
2021/04/23 06:30:17;;;;;;;16.48;2.60;;;20.60;35.50;;;;;;5031500;28;20070;-63
2021/04/23 06:32:45;;;;;;;14.20;3.22;;;20.50;35.30;;;;;;5028970;28;20074;-62
2021/04/23 06:35:14;;;;;;;11.23;2.75;;;20.60;35.40;;;;;;5030296;28;20102;-62
2021/04/23 06:37:42;;;;;;;14.05;2.85;;;20.60;35.30;;;;;;5028948;28;20066;-63
2021/04/23 06:40:09;;;;;;;25.85;2.42;;;20.60;35.40;;;;;;5030382;28;20073;-61
2021/04/23 06:42:36;;;;;;;14.77;2.28;;;20.60;35.40;;;;;;5027656;28;20109;-63
2021/04/23 06:45:05;;;;;;;12.25;2.30;;;20.50;35.40;;;;;;5029044;28;20101;-63
2021/04/23 06:47:33;;;;;;;17.50;5.75;;;20.50;35.60;;;;;;5031618;28;20088;-61
2021/04/23 06:50:00;;;;;;;11.30;2.45;;;20.50;35.40;;;;;;5030360;28;20112;-62
2021/04/23 06:52:27;;;;;;;7.85;2.00;;;20.40;35.30;;;;;;5030834;28;20326;-62
2021/04/23 06:54:54;;;;;;;7.72;2.35;;;20.30;35.40;;;;;;5030425;28;20093;-63
2021/04/23 06:57:20;;;;;;;13.48;2.17;;;20.30;35.50;;;;;;5014610;28;20121;-63
2021/04/23 06:59:46;;;;;;;9.30;1.63;;;20.20;35.70;;;;;;5029065;28;20082;-62
2021/04/23 07:02:13;;;;;;;12.93;2.08;;;20.10;35.80;;;;;;5028037;28;20066;-63
2021/04/23 07:04:39;;;;;;;13.77;1.83;;;20.10;35.70;;;;;;5032204;28;20097;-62
2021/04/23 07:07:06;;;;;;;7.40;1.83;;;20.10;35.50;;;;;;5032049;28;20066;-61
2021/04/23 07:09:33;;;;;;;11.15;1.80;;;20.20;35.40;;;;;;5031978;28;20089;-62
2021/04/23 07:12:01;;;;;;;11.10;2.00;;;20.10;35.40;;;;;;5029220;28;20082;-62
2021/04/23 07:14:27;;;;;;;13.18;1.90;;;20.10;35.50;;;;;;5027451;28;20093;-62
2021/04/23 07:16:54;;;;;;;7.28;1.80;;;20.10;35.40;;;;;;5028957;28;20068;-63
2021/04/23 07:19:21;;;;;;;11.45;1.73;;;20.10;35.40;;;;;;5029910;28;20078;-63
2021/04/23 07:21:47;;;;;;;7.88;1.63;;;20.10;35.30;;;;;;5030715;28;20070;-62
2021/04/23 07:24:14;;;;;;;6.05;1.70;;;20.10;35.40;;;;;;5030478;28;20156;-62
2021/04/23 07:26:40;;;;;;;8.25;1.65;;;20.10;35.40;;;;;;5031237;28;20077;-60
2021/04/23 07:29:07;;;;;;;9.52;1.70;;;20.10;35.40;;;;;;5030279;28;20081;-61
2021/04/23 07:31:33;;;;;;;7.10;1.67;;;20.10;35.50;;;;;;5030056;28;20157;-62
2021/04/23 07:34:01;;;;;;;8.50;2.05;;;20.10;35.50;;;;;;5031993;28;20100;-62
2021/04/23 07:36:28;;;;;;;8.68;1.70;;;20.10;35.50;;;;;;5029237;28;20153;-61
2021/04/23 07:38:54;;;;;;;9.10;1.50;;;20.10;35.60;;;;;;5030236;28;20506;-62
2021/04/23 07:41:21;;;;;;;3.38;1.52;;;20.10;35.70;;;;;;5031197;28;20600;-62
2021/04/23 07:43:47;;;;;;;7.00;1.50;;;20.10;35.80;;;;;;5027697;28;20596;-62
2021/04/23 07:46:15;;;;;;;5.65;1.58;;;20.00;35.90;;;;;;5030122;28;20123;-62
2021/04/23 07:48:42;;;;;;;6.75;1.80;;;20.00;36.00;;;;;;5030290;28;20153;-62
2021/04/23 07:51:08;;;;;;;8.63;1.35;;;20.00;36.00;;;;;;5034744;28;20478;-62
2021/04/23 07:53:35;;;;;;;5.05;1.92;;;20.00;36.00;;;;;;5033867;28;20165;-63
2021/04/23 07:56:01;;;;;;;8.38;1.73;;;20.00;36.10;;;;;;5034036;28;20066;-62
2021/04/23 07:58:28;;;;;;;6.32;1.55;;;20.00;36.20;;;;;;5034750;28;20078;-63
2021/04/23 08:00:54;;;;;;;8.77;1.65;;;20.00;36.40;;;;;;5033141;28;20105;-63
2021/04/23 08:03:21;;;;;;;6.85;1.67;;;20.00;36.60;;;;;;5034363;28;20119;-62
2021/04/23 08:05:47;;;;;;;9.82;1.45;;;20.00;36.80;;;;;;5033103;28;20070;-62
2021/04/23 08:08:14;;;;;;;6.15;1.65;;;19.90;37.00;;;;;;5030266;28;20070;-60
2021/04/23 08:10:40;;;;;;;8.63;1.70;;;19.80;37.10;;;;;;5033512;28;20073;-62
2021/04/23 08:13:07;;;;;;;7.25;1.80;;;19.80;37.30;;;;;;5033167;28;20077;-63
2021/04/23 08:15:36;;;;;;;5.28;2.25;;;19.80;37.50;;;;;;5033433;28;20085;-61
2021/04/23 08:18:03;;;;;;;9.20;2.08;;;19.80;37.70;;;;;;5035463;28;20481;-61
2021/04/23 08:20:29;;;;;;;9.45;2.00;;;19.80;37.60;;;;;;5032875;28;20085;-61
2021/04/23 08:22:56;;;;;;;6.65;2.50;;;19.80;37.90;;;;;;5032650;28;20124;-62
2021/04/23 08:25:23;;;;;;;18.25;2.10;;;19.80;38.10;;;;;;5030983;28;20077;-62
2021/04/23 08:27:52;;;;;;;7.88;2.50;;;19.70;38.20;;;;;;5033250;28;20070;-62
2021/04/23 08:30:22;;;;;;;6.88;1.45;;;19.70;38.60;;;;;;5030368;28;20062;-62
2021/04/23 08:32:49;;;;;;;11.02;1.95;;;19.70;38.50;;;;;;5033986;28;20073;-64
2021/04/23 08:35:16;;;;;;;9.32;1.92;;;19.70;38.30;;;;;;5031930;28;20097;-62
2021/04/23 08:37:43;;;;;;;5.68;1.77;;;19.50;38.20;;;;;;5030245;28;20076;-64
2021/04/23 08:40:12;;;;;;;9.80;1.90;;;19.40;38.50;;;;;;5032901;28;20565;-59
2021/04/23 08:42:39;;;;;;;12.93;2.13;;;19.40;39.20;;;;;;5032480;28;20584;-61
2021/04/23 08:45:11;;;;;;;8.85;2.28;;;19.30;39.80;;;;;;5034152;28;20078;-62
2021/04/23 08:47:38;;;;;;;10.40;2.20;;;19.30;40.00;;;;;;5033877;28;20539;-60
2021/04/23 08:50:06;;;;;;;9.13;2.08;;;19.30;39.80;;;;;;5031197;28;20527;-58
2021/04/23 08:52:33;;;;;;;10.60;1.95;;;19.30;39.90;;;;;;5031239;28;20131;-61
2021/04/23 08:55:00;;;;;;;10.13;2.05;;;19.30;39.90;;;;;;5032395;28;20551;-60
2021/04/23 08:57:26;;;;;;;;;;;19.30;40.40;;;;;;5033454;28;20598;-61
2021/04/23 08:59:53;;;;;;;10.32;2.00;;;19.20;40.20;;;;;;5031548;28;19965;-62
2021/04/23 09:02:20;;;;;;;10.63;2.83;;;19.20;40.40;;;;;;5028885;28;20085;-60
2021/04/23 09:04:46;;;;;;;9.90;2.42;;;19.10;40.00;;;;;;5030389;28;20067;-60
2021/04/23 09:07:13;;;;;;;11.73;2.60;;;19.10;39.70;;;;;;5031180;28;20088;-63
2021/04/23 09:09:40;;;;;;;;;;;19.10;40.30;;;;;;5029222;28;20163;-61
2021/04/23 09:12:26;;;;;;;;;;;19.20;39.70;;;;;;5033038;28;20402;-60
2021/04/23 09:14:56;;;;;;;17.58;3.78;;;19.20;40.10;;;;;;5032587;28;19992;-61
2021/04/23 09:17:24;;;;;;;10.88;3.08;;;19.10;40.40;;;;;;5030572;28;20074;-61
2021/04/23 09:19:52;;;;;;;12.45;3.17;;;19.10;41.20;;;;;;5032582;28;20072;-61
2021/04/23 09:22:18;;;;;;;12.13;3.00;;;19.10;40.50;;;;;;5031099;28;20527;-61
2021/04/23 09:24:48;;;;;;;8.45;3.10;;;19.00;40.70;;;;;;5032090;28;20070;-59
2021/04/23 09:27:18;;;;;;;12.85;4.45;;;19.00;40.60;;;;;;5031210;28;20084;-60
2021/04/23 09:29:48;;;;;;;11.40;3.92;;;18.90;40.30;;;;;;5031754;28;20144;-61
2021/04/23 09:32:24;;;;;;;15.63;3.50;;;18.90;40.70;;;;;;5032254;28;20081;-60
2021/04/23 09:34:53;;;;;;;11.50;3.17;;;18.90;40.30;;;;;;5033071;28;20148;-61
2021/04/23 09:37:24;;;;;;;24.83;4.00;;;19.00;41.40;;;;;;5029391;28;20097;-61
2021/04/23 09:39:52;;;;;;;17.85;3.17;;;19.00;41.30;;;;;;5030394;28;20085;-62
2021/04/23 09:42:20;;;;;;;10.10;3.58;;;19.00;41.00;;;;;;5029722;28;20062;-61
2021/04/23 09:44:49;;;;;;;10.38;3.00;;;18.90;40.70;;;;;;5030146;28;20109;-62
2021/04/23 09:47:23;;;;;;;13.63;2.92;;;18.90;40.60;;;;;;5030212;28;20596;-62
2021/04/23 09:49:54;;;;;;;9.35;2.95;;;18.90;41.10;;;;;;5029850;28;20485;-62
2021/04/23 09:52:21;;;;;;;14.00;3.10;;;18.80;41.30;;;;;;5030532;28;20132;-62
2021/04/23 09:54:50;;;;;;;15.80;3.10;;;18.80;42.10;;;;;;5028832;28;20132;-62
2021/04/23 09:57:31;;;;;;;11.40;2.78;;;18.60;42.00;;;;;;5029706;28;20077;-61
2021/04/23 10:00:04;;;;;;;16.58;2.88;;;18.60;42.00;;;;;;5032920;28;20123;-62
2021/04/23 10:02:31;;;;;;;11.18;3.20;;;18.60;42.30;;;;;;5029949;28;20062;-62
2021/04/23 10:04:58;;;;;;;12.18;2.30;;;18.60;42.50;;;;;;5031225;28;20070;-62
2021/04/23 10:07:31;;;;;;;14.93;3.70;;;18.60;42.10;;;;;;5032571;28;20074;-61
2021/04/23 10:10:05;;;;;;;12.75;3.08;;;18.50;42.10;;;;;;5031525;28;20476;-62
2021/04/23 10:12:54;;;;;;;12.35;2.83;;;18.60;42.70;;;;;;5044171;28;20553;-61
2021/04/23 10:15:33;;;;;;;11.35;2.90;;;18.60;42.50;;;;;;5030404;28;20185;-62
2021/04/23 10:17:59;;;;;;;19.42;4.18;;;18.50;43.00;;;;;;5031254;28;20066;-62
2021/04/23 10:20:28;;;;;;;;;;;18.50;43.00;;;;;;5031279;28;20161;-61
2021/04/23 10:22:55;;;;;;;20.15;3.67;;;18.40;43.60;;;;;;5030877;28;19958;-60
2021/04/23 10:25:23;;;;;;;15.15;3.60;;;18.40;42.90;;;;;;5046082;28;20088;-61
2021/04/23 10:27:51;;;;;;;10.43;3.95;;;18.40;43.50;;;;;;5028643;28;20096;-61
2021/04/23 10:30:26;;;;;;;10.80;4.30;;;18.40;43.50;;;;;;5030344;28;20077;-61
2021/04/23 10:32:55;;;;;;;19.85;4.72;;;18.40;43.40;;;;;;5028386;28;20069;-61
2021/04/23 10:35:25;;;;;;;24.50;5.45;;;18.20;43.20;;;;;;5028490;28;20100;-60
2021/04/23 10:37:53;;;;;;;21.45;5.50;;;18.30;43.90;;;;;;5029660;28;20124;-62
2021/04/23 10:40:22;;;;;;;14.57;5.10;;;18.20;43.30;;;;;;5032384;28;20100;-62
2021/04/23 10:42:50;;;;;;;16.58;6.05;;;18.10;43.30;;;;;;5029775;28;20189;-60
2021/04/23 10:45:25;;;;;;;16.05;5.75;;;18.20;43.30;;;;;;5030882;28;20062;-58
2021/04/23 10:47:57;;;;;;;18.35;5.82;;;18.20;43.20;;;;;;5029887;28;20407;-61
2021/04/23 10:50:47;;;;;;;14.98;5.18;;;18.20;42.80;;;;;;5028333;28;20074;-61
2021/04/23 10:53:26;;;;;;;23.98;5.70;;;18.20;42.80;;;;;;5029701;28;20180;-61
2021/04/23 10:55:57;;;;;;;17.17;5.35;;;18.30;43.50;;;;;;5028238;28;20535;-61
2021/04/23 10:58:26;;;;;;;22.52;5.60;;;18.30;43.20;;;;;;5030582;28;20085;-61
2021/04/23 11:00:57;;;;;;;16.75;5.25;;;18.40;43.50;;;;;;5029618;28;20085;-61
2021/04/23 11:03:26;;;;;;;16.27;5.57;;;18.30;44.20;;;;;;5029364;28;20152;-60
2021/04/23 11:05:56;;;;;;;20.17;5.20;;;18.30;43.50;;;;;;5030760;28;20604;-61
2021/04/23 11:08:24;;;;;;;12.70;5.25;;;18.30;43.90;;;;;;5029172;28;20070;-61
2021/04/23 11:11:07;;;;;;;17.92;5.28;;;18.30;44.30;;;;;;5032999;28;20070;-62
2021/04/23 11:13:35;;;;;;;10.23;4.45;;;18.30;44.30;;;;;;5030839;28;20090;-61
2021/04/23 11:16:28;;;;;;;20.38;4.75;;;18.30;44.80;;;;;;5029420;28;20176;-61
2021/04/23 11:19:18;;;;;;;12.23;4.53;;;18.30;44.40;;;;;;5029993;28;20450;-62
2021/04/23 11:21:45;;;;;;;12.45;4.00;;;18.30;44.70;;;;;;5031631;28;20078;-61
2021/04/23 11:24:27;;;;;;;8.77;3.35;;;18.30;44.80;;;;;;5034566;28;20437;-62
2021/04/23 11:29:28;;;;;;;12.60;3.40;;;18.30;44.90;;;;;;5032124;28;20165;-58
2021/04/23 11:32:25;;;;;;;14.60;3.35;;;18.20;45.10;;;;;;5034253;28;20125;-62
2021/04/23 11:35:16;;;;;;;8.45;2.95;;;18.20;45.50;;;;;;5033502;28;20094;-60
2021/04/23 11:37:43;;;;;;;4.78;2.83;;;18.10;45.30;;;;;;5032906;28;20429;-61
2021/04/23 11:40:28;;;;;;;12.15;3.08;;;18.10;46.10;;;;;;5032827;28;20074;-61
2021/04/23 11:42:58;;;;;;;9.05;2.92;;;18.00;46.00;;;;;;5033957;28;20113;-61
2021/04/23 11:45:30;;;;;;;9.95;2.60;;;18.00;46.40;;;;;;5033023;28;20081;-60
2021/04/23 11:48:06;;;;;;;13.98;3.15;;;18.00;46.50;;;;;;5031019;28;20547;-62
2021/04/23 11:50:35;;;;;;;12.23;2.92;;;18.00;46.20;;;;;;5034037;28;20076;-61
2021/04/23 11:53:06;;;;;;;12.85;3.08;;;18.00;46.60;;;;;;5031370;28;20084;-60
2021/04/23 11:55:38;;;;;;;7.20;2.78;;;18.00;46.70;;;;;;5032727;28;20098;-60
2021/04/23 11:58:17;;;;;;;8.55;2.90;;;17.90;46.80;;;;;;5031486;28;20070;-59
2021/04/23 12:00:58;;;;;;;8.05;2.30;;;17.90;47.10;;;;;;5031616;28;20074;-61
2021/04/23 12:03:25;;;;;;;9.15;3.03;;;17.90;47.20;;;;;;5034169;28;20078;-61
2021/04/23 12:05:54;;;;;;;4.93;2.03;;;17.90;47.20;;;;;;5031940;28;20422;-61
2021/04/23 12:08:32;;;;;;;7.18;2.17;;;18.00;47.20;;;;;;5033911;28;20398;-61
2021/04/23 12:11:01;;;;;;;7.65;2.25;;;18.00;47.20;;;;;;5031743;28;20164;-61
2021/04/23 12:13:33;;;;;;;6.95;1.83;;;18.10;47.30;;;;;;5033453;28;20073;-61
2021/04/23 12:16:05;;;;;;;6.97;2.50;;;18.10;47.60;;;;;;5031598;28;20101;-62
2021/04/23 12:18:32;;;;;;;7.20;1.92;;;18.20;47.40;;;;;;5032090;28;20147;-62
2021/04/23 12:21:03;;;;;;;10.63;2.25;;;18.10;47.50;;;;;;5033369;28;20066;-62
2021/04/23 12:23:32;;;;;;;7.43;2.20;;;18.20;47.70;;;;;;5032450;28;20092;-62
2021/04/23 12:26:04;;;;;;;3.83;2.15;;;18.10;47.60;;;;;;5033802;28;20084;-61
2021/04/23 12:28:51;;;;;;;4.50;2.15;;;18.20;47.90;;;;;;5032479;28;20070;-62
2021/04/23 12:31:31;;;;;;;8.60;2.40;;;18.20;47.70;;;;;;5032100;28;20486;-62
2021/04/23 12:34:04;;;;;;;6.22;2.10;;;18.30;47.60;;;;;;5028975;28;20473;-62
2021/04/23 12:36:45;;;;;;;8.57;2.30;;;18.30;47.50;;;;;;5033061;28;20093;-62
2021/04/23 12:39:22;;;;;;;9.43;2.30;;;18.20;47.50;;;;;;5032060;28;20076;-64
2021/04/23 12:41:50;;;;;;;;;;;18.30;47.80;;;;;;5030928;28;20074;-62
2021/04/23 12:44:35;;;;;;;5.53;1.63;;;18.20;47.80;;;;;;5031768;28;19992;-62
2021/04/23 12:47:11;;;;;;;6.63;2.15;;;18.30;47.80;;;;;;5030040;28;20069;-59
2021/04/23 12:49:40;;;;;;;7.22;1.90;;;18.30;47.80;;;;;;5031629;28;20073;-59
2021/04/23 12:52:18;;;;;;;4.75;2.00;;;18.30;47.80;;;;;;5029945;28;20531;-61
2021/04/23 12:54:49;;;;;;;7.43;2.08;;;18.30;47.80;;;;;;5031503;28;20098;-62